Time,TemperatureF,DewpointF,PressureIn,WindDirection,WindDirectionDegrees,WindSpeedMPH,WindSpeedGustMPH,Humidity,HourlyPrecipIn,Conditions,Clouds,dailyrainin,SoftwareType,DateUTC
2013-01-18 00:14:00,29.8,29.6,30.02,West,270,11.4,-999.0,99,-99.99,,,0.00,Acu-Link.com,2013-01-18 05:14:00,
2013-01-18 00:45:00,28.8,28.6,30.05,West,270,5.3,-999.0,99,-99.99,,,0.00,Acu-Link.com,2013-01-18 05:45:00,
2013-01-18 01:00:00,28.6,28.4,30.07,West,270,7.3,-999.0,99,-99.99,,,0.00,Acu-Link.com,2013-01-18 06:00:00,
2013-01-18 01:16:00,28.4,28.2,30.07,NNW,337,5.8,-999.0,99,-99.99,,,0.00,Acu-Link.com,2013-01-18 06:16:00,
2013-01-18 01:31:00,28.0,27.8,30.08,WNW,292,5.3,-999.0,99,-99.99,,,0.00,Acu-Link.com,2013-01-18 06:31:00,
2013-01-18 01:46:00,27.7,27.5,30.08,NNW,337,6.3,-999.0,99,-99.99,,,0.00,Acu-Link.com,2013-01-18 06:46:00,
2013-01-18 02:02:00,28.4,28.2,30.09,NW,315,6.3,-999.0,99,-99.99,,,0.00,Acu-Link.com,2013-01-18 07:02:00,
2013-01-18 02:17:00,27.5,27.3,30.09,NW,315,5.8,-999.0,99,-99.99,,,0.00,Acu-Link.com,2013-01-18 07:17:00,
2013-01-18 02:32:00,27.5,27.3,30.10,NW,315,7.8,-999.0,99,-99.99,,,0.00,Acu-Link.com,2013-01-18 07:32:00,
2013-01-18 02:47:00,27.3,27.1,30.10,NW,315,9.9,-999.0,99,-99.99,,,0.00,Acu-Link.com,2013-01-18 07:47:00,
2013-01-18 03:03:00,27.1,26.9,30.11,NNW,337,6.8,-999.0,99,-99.99,,,0.00,Acu-Link.com,2013-01-18 08:03:00,
2013-01-18 03:18:00,27.0,26.8,30.11,West,270,9.4,-999.0,99,-99.99,,,0.00,Acu-Link.com,2013-01-18 08:18:00,
2013-01-18 03:33:00,27.0,26.8,30.10,NW,315,6.3,-999.0,99,-99.99,,,0.00,Acu-Link.com,2013-01-18 08:33:00,
2013-01-18 03:48:00,26.6,26.4,30.10,NNW,337,7.3,-999.0,99,-99.99,,,0.00,Acu-Link.com,2013-01-18 08:48:00,
2013-01-18 04:04:00,26.4,26.2,30.10,WNW,292,9.4,-999.0,99,-99.99,,,0.00,Acu-Link.com,2013-01-18 09:04:00,
2013-01-18 04:19:00,26.4,26.2,30.11,NW,315,5.8,-999.0,99,-99.99,,,0.00,Acu-Link.com,2013-01-18 09:19:00,
2013-01-18 04:34:00,26.2,26.0,30.10,NNW,337,6.8,-999.0,99,-99.99,,,0.00,Acu-Link.com,2013-01-18 09:34:00,
2013-01-18 04:49:00,26.2,26.0,30.09,NW,315,6.8,-999.0,99,-99.99,,,0.00,Acu-Link.com,2013-01-18 09:49:00,
2013-01-18 05:05:00,26.4,26.2,30.10,WNW,292,9.9,-999.0,99,-99.99,,,0.00,Acu-Link.com,2013-01-18 10:05:00,
2013-01-18 05:20:00,26.6,26.4,30.10,NNW,337,5.3,-999.0,99,-99.99,,,0.00,Acu-Link.com,2013-01-18 10:20:00,
2013-01-18 05:35:00,26.6,26.4,30.11,NE,45,5.3,-999.0,99,-99.99,,,0.00,Acu-Link.com,2013-01-18 10:35:00,
2013-01-18 05:51:00,27.0,26.8,30.10,West,270,6.3,-999.0,99,-99.99,,,0.00,Acu-Link.com,2013-01-18 10:51:00,
2013-01-18 06:06:00,27.5,27.3,30.11,NNW,337,9.9,-999.0,99,-99.99,,,0.00,Acu-Link.com,2013-01-18 11:06:00,
2013-01-18 06:21:00,26.6,26.4,30.11,WNW,292,10.9,-999.0,99,-99.99,,,0.00,Acu-Link.com,2013-01-18 11:21:00,
2013-01-18 06:37:00,26.4,26.2,30.11,SSE,157,4.7,-999.0,99,-99.99,,,0.00,Acu-Link.com,2013-01-18 11:37:00,
2013-01-18 06:52:00,25.9,25.7,30.13,SSE,157,2.2,-999.0,99,-99.99,,,0.00,Acu-Link.com,2013-01-18 11:52:00,
2013-01-18 07:07:00,25.7,25.5,30.14,WSW,247,4.2,-999.0,99,-99.99,,,0.00,Acu-Link.com,2013-01-18 12:07:00,
2013-01-18 07:23:00,25.3,25.1,30.15,West,270,5.8,-999.0,99,-99.99,,,0.00,Acu-Link.com,2013-01-18 12:23:00,
2013-01-18 07:38:00,25.9,25.7,30.17,NW,315,8.9,-999.0,99,-99.99,,,0.00,Acu-Link.com,2013-01-18 12:38:00,
2013-01-18 07:53:00,26.4,26.2,30.19,WNW,292,7.8,-999.0,99,-99.99,,,0.00,Acu-Link.com,2013-01-18 12:53:00,
2013-01-18 08:08:00,27.5,27.3,30.19,WNW,292,6.8,-999.0,99,-99.99,,,0.00,Acu-Link.com,2013-01-18 13:08:00,
2013-01-18 08:24:00,28.8,28.6,30.20,NW,315,6.3,-999.0,99,-99.99,,,0.00,Acu-Link.com,2013-01-18 13:24:00,
2013-01-18 08:39:00,29.1,28.9,30.20,NNW,337,6.8,-999.0,99,-99.99,,,0.00,Acu-Link.com,2013-01-18 13:39:00,
2013-01-18 08:54:00,31.1,30.9,30.22,North,0,3.7,-999.0,99,-99.99,,,0.00,Acu-Link.com,2013-01-18 13:54:00,
2013-01-18 09:10:00,33.4,33.1,30.24,WSW,247,2.2,-999.0,99,-99.99,,,0.00,Acu-Link.com,2013-01-18 14:10:00,
2013-01-18 09:25:00,34.5,31.0,30.25,North,0,3.2,-999.0,87,-99.99,,,0.00,Acu-Link.com,2013-01-18 14:25:00,
2013-01-18 09:40:00,35.8,32.6,30.26,North,0,3.7,-999.0,88,-99.99,,,0.00,Acu-Link.com,2013-01-18 14:40:00,
2013-01-18 09:55:00,35.8,30.9,30.27,NNW,337,7.3,-999.0,82,-99.99,,,0.00,Acu-Link.com,2013-01-18 14:55:00,
2013-01-18 10:10:00,36.7,31.7,30.28,ESE,112,3.2,-999.0,82,-99.99,,,0.00,Acu-Link.com,2013-01-18 15:10:00,
2013-01-18 10:26:00,39.0,33.4,30.28,NW,315,4.2,-999.0,80,-99.99,,,0.00,Acu-Link.com,2013-01-18 15:26:00,
2013-01-18 10:41:00,35.8,29.0,30.28,WNW,292,7.3,-999.0,76,-99.99,,,0.00,Acu-Link.com,2013-01-18 15:41:00,
2013-01-18 10:56:00,35.6,28.8,30.28,West,270,7.8,-999.0,76,-99.99,,,0.00,Acu-Link.com,2013-01-18 15:56:00,
2013-01-18 11:11:00,37.0,29.5,30.27,NW,315,6.3,-999.0,74,-99.99,,,0.00,Acu-Link.com,2013-01-18 16:11:00,
2013-01-18 11:26:00,38.5,29.2,30.28,WNW,292,10.9,-999.0,69,-99.99,,,0.00,Acu-Link.com,2013-01-18 16:26:00,
2013-01-18 11:42:00,39.9,28.3,30.28,WNW,292,10.9,-999.0,63,-99.99,,,0.01,Acu-Link.com,2013-01-18 16:42:00,
2013-01-18 11:57:00,38.5,27.4,30.28,North,0,7.3,-999.0,64,-99.99,,,0.01,Acu-Link.com,2013-01-18 16:57:00,
2013-01-18 12:12:00,40.1,30.4,30.26,WNW,292,6.3,-999.0,68,-99.99,,,0.01,Acu-Link.com,2013-01-18 17:12:00,
2013-01-18 12:28:00,41.0,29.0,30.26,NW,315,6.3,-999.0,62,-99.99,,,0.01,Acu-Link.com,2013-01-18 17:28:00,
2013-01-18 12:43:00,43.9,31.3,30.27,NNW,337,3.2,-999.0,61,-99.99,,,0.02,Acu-Link.com,2013-01-18 17:43:00,
2013-01-18 12:58:00,48.9,28.5,30.26,WNW,292,4.7,-999.0,45,-99.99,,,0.02,Acu-Link.com,2013-01-18 17:58:00,
2013-01-18 13:14:00,48.7,31.4,30.25,WNW,292,3.7,-999.0,51,-99.99,,,0.03,Acu-Link.com,2013-01-18 18:14:00,
2013-01-18 13:29:00,48.0,30.3,30.26,NNE,22,3.2,-999.0,50,-99.99,,,0.03,Acu-Link.com,2013-01-18 18:29:00,
2013-01-18 13:44:00,49.5,27.9,30.25,NNW,337,2.7,-999.0,43,-99.99,,,0.04,Acu-Link.com,2013-01-18 18:44:00,
2013-01-18 14:00:00,49.1,28.1,30.25,ESE,112,2.7,-999.0,44,-99.99,,,0.04,Acu-Link.com,2013-01-18 19:00:00,
2013-01-18 14:15:00,51.8,25.7,30.24,NNE,22,2.7,-999.0,36,-99.99,,,0.04,Acu-Link.com,2013-01-18 19:15:00,
2013-01-18 14:30:00,52.3,26.8,30.25,WNW,292,2.7,-999.0,37,-99.99,,,0.04,Acu-Link.com,2013-01-18 19:30:00,
2013-01-18 14:46:00,52.2,23.2,30.25,ESE,112,1.7,-999.0,32,-99.99,,,0.04,Acu-Link.com,2013-01-18 19:46:00,
2013-01-18 15:01:00,52.2,25.4,30.25,NW,315,2.7,-999.0,35,-99.99,,,0.04,Acu-Link.com,2013-01-18 20:01:00,
2013-01-18 15:16:00,52.7,23.7,30.24,WNW,292,2.7,-999.0,32,-99.99,,,0.04,Acu-Link.com,2013-01-18 20:16:00,
2013-01-18 15:32:00,53.6,24.5,30.24,SSE,157,3.2,-999.0,32,-99.99,,,0.04,Acu-Link.com,2013-01-18 20:32:00,
2013-01-18 15:47:00,52.3,24.1,30.24,SSE,157,3.2,-999.0,33,-99.99,,,0.04,Acu-Link.com,2013-01-18 20:47:00,
2013-01-18 16:02:00,48.9,25.7,30.24,SE,135,1.7,-999.0,40,-99.99,,,0.04,Acu-Link.com,2013-01-18 21:02:00,
2013-01-18 16:17:00,46.8,25.5,30.26,ESE,112,0.0,-999.0,43,-99.99,,,0.04,Acu-Link.com,2013-01-18 21:17:00,
2013-01-18 16:33:00,45.3,23.6,30.26,NE,45,0.0,-999.0,42,-99.99,,,0.04,Acu-Link.com,2013-01-18 21:33:00,
2013-01-18 16:48:00,43.0,23.7,30.26,NE,45,0.0,-999.0,46,-99.99,,,0.04,Acu-Link.com,2013-01-18 21:48:00,
2013-01-18 17:03:00,41.5,19.6,30.27,NE,45,0.0,-999.0,41,-99.99,,,0.04,Acu-Link.com,2013-01-18 22:03:00,
2013-01-18 17:19:00,40.5,19.8,30.26,NNE,22,0.0,-999.0,43,-99.99,,,0.04,Acu-Link.com,2013-01-18 22:19:00,
2013-01-18 17:34:00,39.6,20.0,30.27,SE,135,0.0,-999.0,45,-99.99,,,0.04,Acu-Link.com,2013-01-18 22:34:00,
2013-01-18 17:49:00,39.0,22.4,30.27,SSE,157,0.0,-999.0,51,-99.99,,,0.04,Acu-Link.com,2013-01-18 22:49:00,
2013-01-18 18:05:00,37.6,23.3,30.28,SE,135,0.0,-999.0,56,-99.99,,,0.04,Acu-Link.com,2013-01-18 23:05:00,
2013-01-18 18:20:00,37.0,24.0,30.27,SSE,157,0.0,-999.0,59,-99.99,,,0.04,Acu-Link.com,2013-01-18 23:20:00,
2013-01-18 18:35:00,36.5,24.3,30.28,SSE,157,0.0,-999.0,61,-99.99,,,0.04,Acu-Link.com,2013-01-18 23:35:00,
2013-01-18 18:51:00,36.5,24.7,30.28,SSE,157,0.0,-999.0,62,-99.99,,,0.04,Acu-Link.com,2013-01-18 23:51:00,
2013-01-18 19:06:00,36.7,24.5,30.29,South,180,0.0,-999.0,61,-99.99,,,0.04,Acu-Link.com,2013-01-19 00:06:00,
2013-01-18 19:21:00,36.9,24.3,30.29,SSE,157,0.0,-999.0,60,-99.99,,,0.04,Acu-Link.com,2013-01-19 00:21:00,
2013-01-18 19:36:00,36.5,24.7,30.29,South,180,0.0,-999.0,62,-99.99,,,0.04,Acu-Link.com,2013-01-19 00:36:00,
2013-01-18 19:52:00,36.3,24.5,30.31,SSW,202,2.7,-999.0,62,-99.99,,,0.04,Acu-Link.com,2013-01-19 00:52:00,
2013-01-18 20:07:00,35.2,24.3,30.30,SSE,157,0.0,-999.0,64,-99.99,,,0.04,Acu-Link.com,2013-01-19 01:07:00,
2013-01-18 20:22:00,35.6,25.4,30.29,South,180,2.2,-999.0,66,-99.99,,,0.04,Acu-Link.com,2013-01-19 01:22:00,
2013-01-18 20:38:00,35.1,26.0,30.29,SE,135,2.2,-999.0,69,-99.99,,,0.04,Acu-Link.com,2013-01-19 01:38:00,
2013-01-18 20:53:00,33.8,26.1,30.30,ESE,112,1.7,-999.0,73,-99.99,,,0.04,Acu-Link.com,2013-01-19 01:53:00,
2013-01-18 21:08:00,34.7,27.3,30.30,SSE,157,3.2,-999.0,74,-99.99,,,0.04,Acu-Link.com,2013-01-19 02:08:00,
2013-01-18 21:23:00,34.7,27.3,30.30,SE,135,2.2,-999.0,74,-99.99,,,0.04,Acu-Link.com,2013-01-19 02:23:00,
2013-01-18 21:39:00,34.3,27.5,30.30,ESE,112,2.2,-999.0,76,-99.99,,,0.04,Acu-Link.com,2013-01-19 02:39:00,
2013-01-18 21:54:00,33.6,26.5,30.30,ESE,112,2.2,-999.0,75,-99.99,,,0.04,Acu-Link.com,2013-01-19 02:54:00,
2013-01-18 22:09:00,33.8,26.7,30.29,SE,135,1.7,-999.0,75,-99.99,,,0.04,Acu-Link.com,2013-01-19 03:09:00,
2013-01-18 22:25:00,33.3,26.6,30.31,SW,225,0.0,-999.0,76,-99.99,,,0.04,Acu-Link.com,2013-01-19 03:25:00,
2013-01-18 22:40:00,34.0,27.2,30.30,South,180,2.7,-999.0,76,-99.99,,,0.04,Acu-Link.com,2013-01-19 03:40:00,
2013-01-18 22:55:00,33.1,27.0,30.30,SE,135,1.7,-999.0,78,-99.99,,,0.04,Acu-Link.com,2013-01-19 03:55:00,
2013-01-18 23:11:00,32.4,26.9,30.29,ESE,112,2.2,-999.0,80,-99.99,,,0.04,Acu-Link.com,2013-01-19 04:11:00,
2013-01-18 23:26:00,32.2,26.7,30.28,ESE,112,2.7,-999.0,80,-99.99,,,0.04,Acu-Link.com,2013-01-19 04:26:00,
2013-01-18 23:41:00,31.8,26.9,30.28,South,180,2.2,-999.0,82,-99.99,,,0.04,Acu-Link.com,2013-01-19 04:41:00,
2013-01-18 23:57:00,31.5,27.5,30.28,SE,135,1.7,-999.0,85,-99.99,,,0.04,Acu-Link.com,2013-01-19 04:57:00,